Time;durP1;ratioP1;P1;durP2;ratioP2;P2;SDS_P1;SDS_P2;PMS_P1;PMS_P2;Temp;Humidity;BMP_temperature;BMP_pressure;BME280_temperature;BME280_humidity;BME280_pressure;Samples;Min_cycle;Max_cycle;Signal;HPM_P1;HPM_P2
2022/05/03 00:00:04;;;;;;;;;;;12.10;70.30;;;11.16;65.72;96150.31;4238209;33;19906;-84
2022/05/03 00:02:44;;;;;;;;;;;12.10;70.10;;;11.16;66.05;96150.31;4261937;33;19902;-84
2022/05/03 00:05:25;;;;;;;;;;;12.10;70.00;;;11.15;65.64;96152.22;4261768;33;19909;-85
2022/05/03 00:07:57;;;;;;;;;;;12.10;69.90;;;11.16;66.00;96147.56;4261287;33;20062;-84
2022/05/03 00:10:30;;;;;;;;;;;12.10;70.10;;;11.16;65.63;96158.53;4261890;33;19902;-85
2022/05/03 00:13:08;;;;;;;;;;;12.10;70.00;;;11.15;66.20;96148.66;4261800;33;20118;-84
2022/05/03 00:15:38;;;;;;;;;;;12.10;70.10;;;11.15;66.23;96151.41;4237845;33;20129;-85
2022/05/03 00:18:07;;;;;;;;;;;12.10;70.20;;;11.14;65.69;96147.03;4237356;33;20120;-85
2022/05/03 00:20:38;;;;;;;;;;;12.10;70.20;;;11.15;66.06;96157.69;4237733;33;20009;-85
2022/05/03 00:23:07;;;;;;;;;;;12.10;70.00;;;11.13;65.66;96148.94;4237764;33;19991;-85
2022/05/03 00:25:36;;;;;;;;;;;12.10;70.00;;;11.14;65.79;96155.25;4237796;33;20116;-85
2022/05/03 00:28:05;;;;;;;;;;;12.10;70.00;;;11.13;66.21;96154.41;4262419;33;19909;-85
2022/05/03 00:30:34;;;;;;;;;;;12.10;70.20;;;11.13;66.19;96157.16;4261457;33;19902;-83
2022/05/03 00:33:04;;;;;;;;;;;12.10;70.30;;;11.12;65.90;96154.69;4238035;33;20042;-84
2022/05/03 00:35:37;;;;;;;;;;;12.10;70.30;;;11.12;66.12;96151.97;4238236;33;20018;-84
2022/05/03 00:38:05;;;;;;;;;;;12.10;70.20;;;11.12;65.88;96147.28;4261968;33;20173;-84
2022/05/03 00:40:34;;;;;;;;;;;12.10;70.10;;;11.12;66.01;96154.69;4261465;33;20130;-84
2022/05/03 00:43:10;;;;;;;;;;;12.10;70.00;;;11.12;65.58;96149.22;4261354;33;20097;-85
2022/05/03 00:45:43;;;;;;;;;;;12.10;70.00;;;11.09;65.74;96145.13;4237396;33;20211;-84
2022/05/03 00:48:24;;;;;;;;;;;12.10;70.00;;;11.11;66.10;96144.84;4237168;33;19992;-84
2022/05/03 00:51:02;;;;;;;;;;;12.10;70.30;;;11.11;66.04;96153.06;4237449;33;20000;-85
2022/05/03 00:53:33;;;;;;;;;;;12.10;70.20;;;11.08;66.11;96150.84;4261436;33;20228;-84
2022/05/03 00:56:36;;;;;;;;;;;12.10;70.10;;;11.11;66.03;96155.78;4260832;33;19901;-85
2022/05/03 00:59:15;;;;;;;;;;;12.10;70.20;;;11.10;65.68;96165.91;4237578;33;20122;-84
2022/05/03 01:01:54;;;;;;;;;;;12.00;70.00;;;11.11;65.90;96164.00;4261124;33;20092;-84
2022/05/03 01:04:26;;;;;;;;;;;12.10;70.10;;;11.10;66.11;96156.88;4237384;33;20133;-85
2022/05/03 01:07:05;;;;;;;;;;;12.00;70.00;;;11.09;65.83;96163.47;4261623;33;20133;-84
2022/05/03 01:09:43;;;;;;;;;;;12.00;70.00;;;11.07;65.89;96149.22;4261191;33;20125;-84
2022/05/03 01:12:24;;;;;;;;;;;12.00;70.00;;;11.08;65.95;96157.16;4237295;33;20110;-85
2022/05/03 01:15:08;;;;;;;;;;;12.00;70.10;;;11.07;65.78;96155.53;4237224;33;19902;-85
2022/05/03 01:17:49;;;;;;;;;;;12.10;70.20;;;11.07;65.71;96155.53;4236672;33;19909;-84
2022/05/03 01:20:24;;;;;;;;;;;12.00;70.00;;;11.08;66.02;96156.34;4262126;33;19902;-84
2022/05/03 01:23:37;;;;;;;;;;;12.00;70.00;;;11.07;65.84;96155.53;4237193;33;19901;-85
2022/05/03 01:26:28;;;;;;;;;;;12.00;70.00;;;11.04;66.09;96154.13;4236794;33;19912;-85
2022/05/03 01:29:12;;;;;;;;;;;12.00;70.00;;;11.05;65.96;96147.56;4234512;33;19902;-85
2022/05/03 01:31:41;;;;;;;;;;;12.00;70.10;;;11.06;65.92;96159.34;4237031;33;19950;-84
2022/05/03 01:34:12;;;;;;;;;;;12.00;70.10;;;11.05;65.89;96144.81;4260855;33;20029;-84
2022/05/03 01:36:45;;;;;;;;;;;12.00;70.00;;;11.07;65.85;96151.94;4260337;33;19902;-84
2022/05/03 01:39:21;;;;;;;;;;;12.00;70.10;;;11.04;65.92;96148.66;4260709;33;19970;-85
2022/05/03 01:41:52;;;;;;;;;;;12.00;70.00;;;11.05;65.61;96150.31;4236956;33;20085;-84
2022/05/03 01:44:33;;;;;;;;;;;12.00;70.00;;;11.04;65.97;96151.41;4261712;33;20070;-85
2022/05/03 01:47:57;;;;;;;;;;;12.00;70.00;;;11.03;65.79;96141.56;4260199;33;20149;-85
2022/05/03 01:50:54;;;;;;;;;;;12.00;70.00;;;11.03;65.62;96152.53;4260597;33;20229;-84
2022/05/03 01:53:28;;;;;;;;;;;12.00;70.00;;;11.03;65.94;96154.41;4260754;33;20226;-84
2022/05/03 01:56:32;;;;;;;;;;;12.00;70.00;;;11.02;65.93;96142.66;4261409;33;19909;-85
2022/05/03 01:59:12;;;;;;;;;;;12.00;70.00;;;11.01;65.96;96135.53;4236769;33;19902;-84
2022/05/03 02:01:59;;;;;;;;;;;12.00;70.10;;;11.02;66.10;96136.34;4260466;33;20255;-84
2022/05/03 02:04:53;;;;;;;;;;;12.00;70.20;;;11.01;66.11;96141.00;4236688;33;19902;-84
2022/05/03 02:07:38;;;;;;;;;;;12.00;70.10;;;11.00;65.76;96133.88;4223950;33;19916;-84
2022/05/03 02:10:11;;;;;;;;;;;12.00;70.10;;;11.01;65.90;96143.75;4236765;33;19984;-85
2022/05/03 02:12:47;;;;;;;;;;;12.00;70.20;;;11.01;66.08;96145.66;4237870;33;20553;-85
2022/05/03 02:15:28;;;;;;;;;;;12.00;70.20;;;11.01;66.01;96137.44;4239017;33;19909;-84
2022/05/03 02:18:17;;;;;;;;;;;12.00;70.20;;;11.00;65.95;96133.88;4262506;33;19909;-85
2022/05/03 02:21:19;;;;;;;;;;;12.00;70.40;;;11.01;66.45;96131.97;4262881;33;20365;-84
2022/05/03 02:23:53;;;;;;;;;;;12.00;70.40;;;11.01;66.36;96130.06;4262661;33;19902;-84
2022/05/03 02:26:34;;;;;;;;;;;12.00;70.40;;;11.00;66.04;96128.41;4262278;33;20213;-84
2022/05/03 02:29:19;;;;;;;;;;;12.00;70.40;;;10.99;66.20;96132.25;4238558;33;19901;-85
2022/05/03 02:32:06;;;;;;;;;;;12.00;70.30;;;11.00;66.13;96128.41;4238440;33;20233;-84
2022/05/03 02:37:40;;;;;;;;;;;12.00;70.30;;;11.00;65.97;96133.03;4257970;33;19908;-84
2022/05/03 02:40:14;;;;;;;;;;;11.90;70.30;;;10.98;66.06;96130.59;4238919;33;20019;-84
2022/05/03 02:42:49;;;;;;;;;;;11.90;70.20;;;10.99;66.05;96131.41;4262229;33;19902;-84
2022/05/03 02:45:18;;;;;;;;;;;11.90;70.30;;;10.99;66.21;96136.88;4262979;33;19902;-84
2022/05/03 02:48:03;;;;;;;;;;;11.90;70.30;;;10.98;65.74;96133.34;4261771;33;20060;-84
2022/05/03 02:50:43;;;;;;;;;;;11.90;70.20;;;10.98;66.01;96140.72;4238017;33;19909;-85
2022/05/03 02:53:23;;;;;;;;;;;11.90;70.30;;;10.97;65.95;96134.44;4237616;33;20075;-85
2022/05/03 02:55:59;;;;;;;;;;;12.00;70.30;;;10.98;65.88;96137.97;4262220;33;20027;-85
2022/05/03 02:58:41;;;;;;;;;;;11.90;70.30;;;10.97;66.09;96139.91;4255587;33;20010;-84
2022/05/03 03:04:34;;;;;;;;;;;11.90;70.40;;;10.95;65.99;96142.09;4233161;33;20106;-84
2022/05/03 03:07:18;;;;;;;;;;;11.90;70.30;;;10.96;65.92;96142.94;4209072;33;19909;-84
2022/05/03 03:09:51;;;;;;;;;;;11.90;70.50;;;10.96;66.19;96142.94;4209815;33;20468;-84
2022/05/03 03:12:40;;;;;;;;;;;11.90;70.40;;;10.96;66.34;96148.41;4233222;33;20130;-84
2022/05/03 03:15:11;;;;;;;;;;;11.90;70.50;;;10.94;66.33;96150.59;4234005;33;19909;-84
2022/05/03 03:17:47;;;;;;;;;;;11.90;70.40;;;10.95;65.91;96152.25;4232014;33;19902;-84
2022/05/03 03:20:39;;;;;;;;;;;11.90;70.30;;;10.94;66.02;96148.66;4210178;33;20157;-84
2022/05/03 03:23:09;;;;;;;;;;;11.90;70.40;;;10.94;66.03;96145.94;4233098;33;19902;-84
2022/05/03 03:25:42;;;;;;;;;;;11.90;70.30;;;10.95;66.05;96147.56;4256998;33;19911;-84
2022/05/03 03:28:13;;;;;;;;;;;11.90;70.40;;;10.93;65.83;96136.06;4209333;33;20209;-84
2022/05/03 03:30:45;;;;;;;;;;;11.90;70.40;;;10.93;66.17;96144.28;4233389;33;20127;-84
2022/05/03 03:33:17;;;;;;;;;;;11.90;70.30;;;10.93;66.03;96140.75;4233227;33;19902;-84
2022/05/03 03:35:49;;;;;;;;;;;11.90;70.50;;;10.93;66.05;96138.81;4233951;33;19909;-84
2022/05/03 03:38:22;;;;;;;;;;;11.90;70.40;;;10.93;66.06;96144.28;4209044;33;20232;-84
2022/05/03 03:40:51;;;;;;;;;;;11.90;70.30;;;10.94;66.12;96145.13;4232792;33;19902;-84
2022/05/03 03:43:20;;;;;;;;;;;11.90;70.30;;;10.93;65.84;96143.47;4209456;33;20361;-84
2022/05/03 03:45:49;;;;;;;;;;;11.90;70.40;;;10.93;66.24;96149.75;4233035;33;19909;-85
2022/05/03 03:48:21;;;;;;;;;;;11.90;70.50;;;10.93;66.12;96148.94;4233262;33;20109;-85
2022/05/03 03:50:56;;;;;;;;;;;11.90;70.40;;;10.92;65.99;96156.34;4232739;33;19994;-85
2022/05/03 03:53:30;;;;;;;;;;;11.90;70.30;;;10.92;66.39;96159.06;4209376;33;20398;-85
2022/05/03 03:56:05;;;;;;;;;;;11.90;70.40;;;10.92;66.35;96153.59;4209270;33;19902;-85
2022/05/03 03:58:39;;;;;;;;;;;11.90;70.40;;;10.92;66.09;96164.53;4209537;33;19968;-84
2022/05/03 04:01:11;;;;;;;;;;;11.90;70.40;;;10.91;66.10;96162.91;4232898;33;20130;-85
2022/05/03 04:03:43;;;;;;;;;;;11.90;70.30;;;10.92;66.21;96164.53;4233940;33;20072;-85
2022/05/03 04:06:13;;;;;;;;;;;11.90;70.40;;;10.93;66.25;96165.38;4208798;33;20051;-84
2022/05/03 04:08:43;;;;;;;;;;;11.90;70.50;;;10.92;66.37;96167.28;4256451;33;20213;-84
2022/05/03 04:11:18;;;;;;;;;;;11.90;70.50;;;10.91;66.11;96168.38;4232316;33;19902;-84
2022/05/03 04:13:48;;;;;;;;;;;11.90;70.50;;;10.90;66.03;96161.28;4232263;33;20449;-84
2022/05/03 04:16:17;;;;;;;;;;;11.90;70.40;;;10.92;66.27;96164.53;4232917;33;19913;-85
2022/05/03 04:18:51;;;;;;;;;;;11.90;70.60;;;10.92;66.32;96164.53;4231559;33;19910;-85
2022/05/03 04:21:25;;;;;;;;;;;11.90;70.60;;;10.91;66.18;96165.63;4208927;33;20172;-85
2022/05/03 04:23:59;;;;;;;;;;;11.90;70.60;;;10.92;66.18;96169.22;4232428;33;20131;-84
2022/05/03 04:26:28;;;;;;;;;;;11.90;70.50;;;10.92;66.08;96170.03;4231882;33;20139;-85
2022/05/03 04:29:01;;;;;;;;;;;11.90;70.50;;;10.92;66.03;96175.50;4209004;33;20011;-85
2022/05/03 04:31:31;;;;;;;;;;;11.90;70.30;;;10.92;66.12;96161.81;4208891;33;20120;-85
2022/05/03 04:34:04;;;;;;;;;;;11.90;70.50;;;10.92;66.07;96169.22;4231998;33;20063;-85
2022/05/03 04:36:35;;;;;;;;;;;11.90;70.40;;;10.93;66.21;96168.13;4207980;33;20024;-85
2022/05/03 04:39:11;;;;;;;;;;;11.90;70.40;;;10.93;66.23;96165.38;4233101;33;19909;-85
2022/05/03 04:41:41;;;;;;;;;;;11.90;70.50;;;10.93;66.18;96166.19;4255850;33;19910;-84
2022/05/03 04:44:10;;;;;;;;;;;11.90;70.40;;;10.93;65.98;96157.97;4208535;33;20146;-84
2022/05/03 04:46:43;;;;;;;;;;;11.90;70.40;;;10.92;66.09;96156.34;4207942;33;20118;-85
2022/05/03 04:49:12;;;;;;;;;;;11.90;70.30;;;10.94;66.18;96164.28;4208331;33;20360;-84
2022/05/03 04:51:47;;;;;;;;;;;11.90;70.30;;;10.94;66.16;96164.28;4231927;33;20076;-85
2022/05/03 04:54:18;;;;;;;;;;;11.90;70.40;;;10.95;66.08;96166.75;4231669;33;19910;-84
2022/05/03 04:56:53;;;;;;;;;;;11.90;70.30;;;10.96;65.94;96165.66;4207613;33;19902;-84
2022/05/03 04:59:23;;;;;;;;;;;11.90;70.10;;;10.97;65.91;96167.28;4236227;33;19909;-84
2022/05/03 05:13:48;;;;;;;;;;;11.90;70.50;;;11.01;66.42;96167.56;4185852;33;20149;-85
2022/05/03 05:16:20;;;;;;;;;;;12.00;70.50;;;11.00;66.18;96164.03;4231087;33;20218;-84
2022/05/03 05:18:49;;;;;;;;;;;12.00;70.30;;;10.99;65.89;96176.06;4231592;33;20106;-85
2022/05/03 05:21:20;;;;;;;;;;;12.00;70.10;;;11.01;66.12;96173.88;4232388;33;19910;-85
2022/05/03 05:31:41;;;;;;;;;;;12.00;70.30;;;11.04;66.26;96173.31;4108460;34;20111;-84
2022/05/03 05:34:12;;;;;;;;;;;12.00;70.50;;;11.05;67.00;96180.44;4184936;33;20146;-84
2022/05/03 05:36:42;;;;;;;;;;;12.00;71.10;;;11.07;67.09;96173.88;4259410;33;20102;-84
2022/05/03 05:39:12;;;;;;;;;;;12.00;71.00;;;11.09;67.26;96177.16;4236467;33;20386;-84
2022/05/03 05:41:41;;;;;;;;;;;12.10;71.40;;;11.11;67.53;96177.72;4260049;33;20190;-84
2022/05/03 05:44:13;;;;;;;;;;;12.10;71.70;;;11.11;67.46;96174.97;4260976;33;20350;-85
2022/05/03 05:46:46;;;;;;;;;;;12.10;71.80;;;11.12;67.98;96191.13;4236348;33;19901;-84
2022/05/03 05:49:18;;;;;;;;;;;12.10;72.30;;;11.14;68.13;96177.16;4263697;33;20103;-84
2022/05/03 05:51:47;;;;;;;;;;;12.10;72.40;;;11.18;67.93;96178.25;4262509;33;19902;-84
2022/05/03 05:54:16;;;;;;;;;;;12.10;72.20;;;11.22;67.72;96178.53;4262196;33;20133;-84
2022/05/03 05:56:46;;;;;;;;;;;12.20;72.30;;;11.23;67.63;96172.75;4262816;33;20137;-84
2022/05/03 05:59:15;;;;;;;;;;;12.20;72.10;;;11.25;67.75;96178.78;4262442;33;20121;-84
2022/05/03 06:01:46;;;;;;;;;;;12.20;72.10;;;11.27;67.92;96181.25;4238635;33;20313;-85
2022/05/03 06:04:19;;;;;;;;;;;12.20;72.00;;;11.27;67.92;96190.31;4238574;33;20380;-84
2022/05/03 06:06:50;;;;;;;;;;;12.20;72.10;;;11.27;67.53;96182.09;4261857;33;20269;-84
2022/05/03 06:09:20;;;;;;;;;;;12.30;72.20;;;11.28;68.02;96182.91;4262516;33;20234;-83
2022/05/03 06:12:00;;;;;;;;;;;12.20;72.10;;;11.28;67.53;96183.72;4262656;33;20310;-85
2022/05/03 06:14:32;;;;;;;;;;;12.20;72.00;;;11.28;67.61;96178.25;4238755;33;20078;-84
2022/05/03 06:17:05;;;;;;;;;;;12.30;72.20;;;11.31;67.70;96188.63;4262154;33;20125;-84
2022/05/03 06:19:38;;;;;;;;;;;12.30;72.20;;;11.35;67.49;96181.53;4263679;33;20301;-85
2022/05/03 06:22:08;;;;;;;;;;;12.30;72.10;;;11.35;67.78;96178.78;4262786;33;20130;-85
2022/05/03 06:24:42;;;;;;;;;;;12.30;72.00;;;11.36;67.44;96177.69;4238982;33;20467;-85
2022/05/03 06:27:12;;;;;;;;;;;12.30;71.90;;;11.38;67.42;96180.13;4238212;33;19944;-85
2022/05/03 06:29:45;;;;;;;;;;;12.40;71.80;;;11.39;67.21;96180.97;4238945;33;20274;-85
2022/05/03 06:32:15;;;;;;;;;;;12.30;71.70;;;11.40;67.53;96182.63;4263013;33;19902;-85
2022/05/03 06:34:44;;;;;;;;;;;12.30;71.70;;;11.40;67.31;96190.84;4262495;33;19902;-85
2022/05/03 06:37:19;;;;;;;;;;;12.30;71.60;;;11.41;67.29;96192.50;4262835;33;20157;-84
2022/05/03 06:39:47;;;;;;;;;;;12.40;71.60;;;11.40;67.40;96186.16;4262352;33;20002;-85
2022/05/03 06:42:17;;;;;;;;;;;12.30;71.70;;;11.40;67.65;96185.38;4262371;33;20129;-85
2022/05/03 06:44:46;;;;;;;;;;;12.30;71.70;;;11.39;66.98;96172.75;4261980;33;20125;-85
2022/05/03 06:47:15;;;;;;;;;;;12.40;71.60;;;11.40;67.67;96186.16;4237643;33;20006;-85
2022/05/03 06:49:44;;;;;;;;;;;12.40;71.60;;;11.38;67.53;96187.56;4238265;33;20390;-85
2022/05/03 06:52:13;;;;;;;;;;;12.30;71.90;;;11.38;67.70;96182.88;4263036;33;20072;-85
2022/05/03 06:54:42;;;;;;;;;;;12.40;71.70;;;11.38;67.78;96182.06;4238109;33;19910;-86
2022/05/03 06:57:14;;;;;;;;;;;12.30;71.70;;;11.34;67.83;96179.88;4261326;33;19909;-85
2022/05/03 06:59:53;;;;;;;;;;;12.30;71.70;;;11.36;67.77;96191.38;4261622;33;20144;-85
2022/05/03 07:02:23;;;;;;;;;;;12.30;71.80;;;11.35;67.48;96173.28;4238049;33;19902;-85
2022/05/03 07:04:59;;;;;;;;;;;12.30;71.90;;;11.35;67.73;96177.97;4262054;33;20357;-85
2022/05/03 07:07:28;;;;;;;;;;;12.40;71.80;;;11.35;67.72;96184.25;4261208;33;19902;-85
2022/05/03 07:09:57;;;;;;;;;;;12.30;71.90;;;11.35;67.38;96176.03;4261886;33;19901;-85
2022/05/03 07:12:25;;;;;;;;;;;12.30;71.70;;;11.35;67.65;96178.78;4262100;33;19902;-84
2022/05/03 07:14:59;;;;;;;;;;;12.30;71.70;;;11.36;67.41;96183.16;4237995;33;20240;-85
2022/05/03 07:23:03;;;;;;;;;;;12.30;71.80;;;11.40;67.49;96179.88;4262356;33;20240;-85
2022/05/03 07:25:32;;;;;;;;;;;12.30;71.70;;;11.39;67.42;96172.75;4262340;33;20166;-85
2022/05/03 07:28:01;;;;;;;;;;;12.40;71.70;;;11.41;67.70;96179.59;4261675;33;19902;-85
2022/05/03 07:30:30;;;;;;;;;;;12.40;71.80;;;11.41;67.60;96182.34;4238295;33;19951;-85
2022/05/03 07:33:00;;;;;;;;;;;12.40;71.80;;;11.43;67.21;96177.41;4261963;33;20070;-85
2022/05/03 07:35:28;;;;;;;;;;;12.40;71.60;;;11.46;67.18;96185.06;4238318;33;20159;-85
2022/05/03 07:37:57;;;;;;;;;;;12.40;71.50;;;11.48;67.30;96177.41;4237766;33;20090;-85
2022/05/03 07:40:26;;;;;;;;;;;12.40;71.50;;;11.50;67.03;96180.66;4261964;33;19909;-85
2022/05/03 07:42:54;;;;;;;;;;;12.40;71.40;;;11.52;67.10;96178.47;4261431;33;19943;-85
2022/05/03 07:45:25;;;;;;;;;;;12.40;71.30;;;11.51;67.18;96178.75;4237171;33;19908;-85
2022/05/03 07:47:54;;;;;;;;;;;12.50;71.40;;;11.56;67.18;96173.25;4236729;33;20078;-85
2022/05/03 07:50:24;;;;;;;;;;;12.50;71.30;;;11.60;66.92;96179.03;4236973;33;20079;-85
2022/05/03 07:52:54;;;;;;;;;;;12.50;71.20;;;11.64;66.98;96180.09;4237347;33;19926;-84
2022/05/03 07:55:50;;;;;;;;;;;12.60;72.00;;;11.69;66.78;96179.25;4237009;33;20240;-85
2022/05/03 07:58:20;;;;;;;;;;;12.60;70.90;;;11.74;66.44;96179.25;4236711;33;20129;-85
2022/05/03 08:00:49;;;;;;;;;;;12.60;70.80;;;11.76;66.06;96180.59;4260811;33;19909;-85
2022/05/03 08:03:18;;;;;;;;;;;12.70;70.70;;;11.77;66.36;96173.22;4232121;33;20042;-85
2022/05/03 08:05:48;;;;;;;;;;;12.70;70.70;;;11.77;66.23;96173.22;4232170;33;19902;-85
2022/05/03 08:08:17;;;;;;;;;;;12.70;70.70;;;11.75;66.84;96184.44;4231773;33;19902;-85
2022/05/03 08:10:47;;;;;;;;;;;12.70;70.80;;;11.74;66.82;96173.75;4208328;33;19921;-85
2022/05/03 08:13:22;;;;;;;;;;;12.70;70.80;;;11.71;66.51;96169.66;4240030;33;19909;-85
2022/05/03 08:15:50;;;;;;;;;;;12.70;70.80;;;11.70;66.54;96179.00;4236762;33;19909;-85
2022/05/03 08:18:19;;;;;;;;;;;12.70;70.80;;;11.69;66.63;96180.09;4236754;33;20116;-84
2022/05/03 08:20:49;;;;;;;;;;;12.60;70.80;;;11.68;66.84;96174.91;4236843;33;19901;-85
2022/05/03 08:23:18;;;;;;;;;;;12.60;70.90;;;11.66;66.95;96177.91;4260689;33;19961;-85
2022/05/03 08:25:47;;;;;;;;;;;12.60;70.90;;;11.65;67.16;96181.72;4237024;33;19903;-84
2022/05/03 08:28:16;;;;;;;;;;;12.60;71.00;;;11.65;66.89;96171.59;4236401;33;19909;-84
2022/05/03 08:30:44;;;;;;;;;;;12.60;71.00;;;11.67;67.08;96176.78;4260857;33;20151;-85
2022/05/03 08:33:13;;;;;;;;;;;12.60;71.10;;;11.65;66.93;96171.59;4260895;33;20122;-85
2022/05/03 08:35:41;;;;;;;;;;;12.60;71.00;;;11.65;66.91;96168.03;4237239;33;19902;-85
2022/05/03 08:43:43;;;;;;;;;;;12.70;71.20;;;11.70;66.90;96167.19;4261242;33;19901;-86
2022/05/03 08:46:12;;;;;;;;;;;12.60;71.00;;;11.71;66.91;96166.94;4236660;33;20011;-86
2022/05/03 08:48:55;;;;;;;;;;;12.70;71.10;;;11.72;66.78;96159.50;4261228;33;19901;-86
2022/05/03 08:51:24;;;;;;;;;;;12.70;71.10;;;11.73;66.81;96162.00;4261427;33;20081;-86
2022/05/03 08:53:54;;;;;;;;;;;12.70;71.00;;;11.73;66.92;96166.63;4261352;33;20024;-85
2022/05/03 08:56:22;;;;;;;;;;;12.70;71.00;;;11.74;67.19;96162.78;4236786;33;20086;-86
2022/05/03 08:58:52;;;;;;;;;;;12.70;71.00;;;11.75;66.89;96164.44;4237431;33;20404;-86
2022/05/03 09:01:20;;;;;;;;;;;12.70;71.00;;;11.74;66.88;96169.13;4261305;33;19909;-86
2022/05/03 09:03:49;;;;;;;;;;;12.70;71.00;;;11.74;66.81;96158.16;4262067;33;19967;-86
2022/05/03 09:06:18;;;;;;;;;;;12.70;71.00;;;11.75;66.88;96161.69;4260642;33;20310;-86
2022/05/03 09:08:50;;;;;;;;;;;12.70;71.00;;;11.76;66.81;96157.84;4237338;33;20236;-86
2022/05/03 09:11:20;;;;;;;;;;;12.70;71.00;;;11.77;66.54;96154.81;4261376;33;20109;-86
2022/05/03 09:13:49;;;;;;;;;;;12.70;70.90;;;11.79;67.00;96157.31;4262221;33;20162;-85
2022/05/03 09:16:18;;;;;;;;;;;12.80;70.90;;;11.82;66.81;96153.97;4260528;33;20240;-86
2022/05/03 09:18:48;;;;;;;;;;;12.80;70.90;;;11.82;66.52;96159.47;4237309;33;19901;-85
2022/05/03 09:24:10;;;;;;;;;;;12.80;70.80;;;11.84;66.63;96151.78;4239856;33;19902;-86
2022/05/03 09:26:40;;;;;;;;;;;12.80;70.70;;;11.84;66.70;96149.03;4263028;33;19925;-86
2022/05/03 09:29:10;;;;;;;;;;;12.80;70.70;;;11.85;66.33;96158.91;4239875;33;20085;-86
2022/05/03 09:31:41;;;;;;;;;;;12.80;70.70;;;11.84;66.71;96145.50;4263664;33;19909;-86
2022/05/03 09:34:19;;;;;;;;;;;12.80;70.60;;;11.85;66.52;96149.88;4263494;33;19902;-86
2022/05/03 09:36:49;;;;;;;;;;;12.80;70.70;;;11.85;66.50;96149.88;4239153;33;19902;-86
2022/05/03 09:39:34;;;;;;;;;;;12.80;70.70;;;11.85;66.72;96153.44;4263693;33;20229;-86
2022/05/03 09:42:09;;;;;;;;;;;12.80;70.70;;;11.84;66.91;96146.28;4239946;33;19902;-84
2022/05/03 09:44:52;;;;;;;;;;;12.80;70.80;;;11.85;66.76;96145.19;4239667;33;19924;-86
2022/05/03 09:47:22;;;;;;;;;;;12.80;70.80;;;11.83;66.70;96136.41;4272529;32;20315;-86
2022/05/03 09:49:51;;;;;;;;;;;12.80;70.80;;;11.84;66.89;96140.81;4273071;32;19911;-85
2022/05/03 09:52:29;;;;;;;;;;;12.80;70.70;;;11.84;66.60;96124.34;4272955;32;19908;-85
2022/05/03 09:54:59;;;;;;;;;;;12.80;70.80;;;11.85;66.78;96134.22;4273066;32;19908;-85
2022/05/03 09:57:31;;;;;;;;;;;12.80;70.80;;;11.87;66.75;96139.44;4272139;32;19944;-85
2022/05/03 10:00:24;;;;;;;;;;;12.80;70.80;;;11.84;66.53;96123.53;4272826;32;20038;-85
2022/05/03 10:06:59;;;;;;;;;;;12.80;70.70;;;11.82;66.52;96121.06;4268961;33;20075;-86
2022/05/03 10:09:27;;;;;;;;;;;12.80;70.80;;;11.84;66.77;96121.59;4243968;33;19909;-86
2022/05/03 10:11:56;;;;;;;;;;;12.80;70.80;;;11.83;66.82;96125.44;4243756;33;20294;-86
2022/05/03 10:14:26;;;;;;;;;;;12.80;70.80;;;11.84;67.09;96129.84;4267322;33;19901;-86
2022/05/03 10:22:27;;;;;;;;;;;12.80;70.80;;;11.82;66.96;96107.34;4267698;33;20380;-86
2022/05/03 10:24:56;;;;;;;;;;;12.80;70.90;;;11.81;66.83;96114.78;4267496;33;20192;-86
2022/05/03 10:27:25;;;;;;;;;;;12.80;70.80;;;11.82;66.73;96105.44;4292111;33;19902;-86
2022/05/03 10:30:18;;;;;;;;;;;12.80;71.00;;;11.83;66.59;96100.75;4276429;33;20014;-86
2022/05/03 10:33:39;;;;;;;;;;;12.80;70.90;;;11.82;66.79;96101.88;4243624;33;20097;-86
2022/05/03 10:36:43;;;;;;;;;;;12.80;70.90;;;11.84;66.66;96101.59;4243199;33;20131;-87
2022/05/03 10:39:25;;;;;;;;;;;12.80;71.00;;;11.81;66.69;96087.34;4243672;33;19902;-85
2022/05/03 10:41:56;;;;;;;;;;;12.80;70.90;;;11.83;66.94;96087.06;4291533;33;19927;-86
2022/05/03 10:44:57;;;;;;;;;;;12.80;71.00;;;11.84;66.87;96085.94;4291732;33;20132;-86
2022/05/03 10:47:47;;;;;;;;;;;12.80;71.00;;;11.82;66.85;96080.75;4266893;33;19902;-86
2022/05/03 10:50:26;;;;;;;;;;;12.80;70.90;;;11.84;66.84;96076.91;4316190;32;20057;-86
2022/05/03 10:53:38;;;;;;;;;;;12.80;71.00;;;11.85;66.65;96079.38;4315972;32;19902;-86
2022/05/03 10:56:17;;;;;;;;;;;12.80;71.00;;;11.84;66.86;96074.19;4291098;33;20203;-86
2022/05/03 10:59:06;;;;;;;;;;;12.80;70.90;;;11.84;66.91;96071.44;4291399;33;20128;-86
2022/05/03 11:01:35;;;;;;;;;;;12.80;70.90;;;11.81;67.04;96065.41;4296201;32;20128;-85
2022/05/03 11:04:12;;;;;;;;;;;12.80;71.10;;;11.84;66.73;96069.50;4321268;32;19901;-86
2022/05/03 11:06:41;;;;;;;;;;;12.80;71.00;;;11.84;66.73;96058.53;4319446;32;20026;-86
2022/05/03 11:09:11;;;;;;;;;;;12.80;71.00;;;11.84;67.10;96064.00;4319985;32;20121;-86
2022/05/03 11:12:00;;;;;;;;;;;12.80;71.00;;;11.82;67.05;96061.56;4295520;32;19901;-86
2022/05/03 11:14:49;;;;;;;;;;;12.80;71.00;;;11.84;66.93;96053.03;4294848;32;20106;-86
2022/05/03 11:17:18;;;;;;;;;;;12.80;71.00;;;11.84;66.97;96063.22;4265970;33;19909;-86
2022/05/03 11:19:58;;;;;;;;;;;12.80;71.00;;;11.84;67.11;96050.28;4290706;33;20403;-86
2022/05/03 11:22:36;;;;;;;;;;;12.80;71.10;;;11.84;67.19;96047.56;4292223;33;20274;-86
2022/05/03 11:25:08;;;;;;;;;;;12.80;71.00;;;11.84;67.13;96044.00;4270990;32;19900;-86
2022/05/03 11:27:38;;;;;;;;;;;12.80;71.20;;;11.82;67.25;96041.53;4319861;32;19982;-86
2022/05/03 11:30:18;;;;;;;;;;;12.80;71.10;;;11.82;66.91;96039.63;4295748;32;20167;-86
2022/05/03 11:32:49;;;;;;;;;;;12.80;71.10;;;11.81;66.86;96037.16;4295910;32;19908;-86
2022/05/03 11:35:23;;;;;;;;;;;12.80;71.10;;;11.84;67.23;96035.78;4295574;32;19901;-86
2022/05/03 11:37:55;;;;;;;;;;;12.80;71.10;;;11.82;67.11;96023.16;4319726;32;19908;-86
2022/05/03 11:40:26;;;;;;;;;;;12.80;71.10;;;11.84;66.80;96027.56;4295656;32;20473;-86
2022/05/03 11:42:54;;;;;;;;;;;12.80;71.10;;;11.84;67.02;96031.09;4295716;32;19900;-86
2022/05/03 11:45:27;;;;;;;;;;;12.80;71.10;;;11.82;67.04;96019.59;4295002;32;19982;-86
2022/05/03 11:47:56;;;;;;;;;;;12.80;71.10;;;11.84;66.86;96028.34;4319857;32;19908;-86
2022/05/03 11:56:26;;;;;;;;;;;12.80;71.00;;;11.85;66.97;96012.72;4295288;32;19964;-86
2022/05/03 11:58:55;;;;;;;;;;;12.80;71.00;;;11.87;67.03;96013.28;4295901;32;19900;-86
2022/05/03 12:01:24;;;;;;;;;;;12.90;71.10;;;11.86;67.13;96006.94;4295806;32;19901;-86
2022/05/03 12:03:53;;;;;;;;;;;12.90;71.20;;;11.85;66.88;96004.50;4295900;32;19920;-86
2022/05/03 12:06:23;;;;;;;;;;;12.80;71.00;;;11.87;67.10;96007.78;4294933;32;20240;-86
2022/05/03 12:08:53;;;;;;;;;;;12.80;71.10;;;11.86;66.94;95993.25;4295691;32;20363;-87
2022/05/03 12:11:24;;;;;;;;;;;12.90;71.20;;;11.87;66.92;95991.34;4320412;32;20337;-89
2022/05/03 12:13:53;;;;;;;;;;;12.80;71.10;;;11.87;67.21;95989.41;4320291;32;20477;-86
2022/05/03 12:16:23;;;;;;;;;;;12.80;71.10;;;11.87;67.07;95989.41;4295181;32;19909;-86
2022/05/03 12:18:53;;;;;;;;;;;12.90;71.20;;;11.87;66.79;95978.44;4271661;32;20235;-86
2022/05/03 12:21:28;;;;;;;;;;;12.80;71.00;;;11.88;66.82;95977.31;4271117;32;20319;-87
2022/05/03 12:24:01;;;;;;;;;;;12.90;71.10;;;11.87;67.21;95975.69;4295458;32;19901;-85
2022/05/03 12:26:37;;;;;;;;;;;12.90;71.20;;;11.87;66.86;95967.44;4295191;32;20158;-86
2022/05/03 12:29:05;;;;;;;;;;;12.90;72.00;;;11.87;66.78;95969.38;4320155;32;19970;-86
2022/05/03 12:31:36;;;;;;;;;;;12.90;71.10;;;11.85;67.01;95961.44;4295675;32;20000;-86
2022/05/03 12:34:07;;;;;;;;;;;12.90;71.20;;;11.87;66.95;95959.22;4312083;32;20208;-87
2022/05/03 12:36:39;;;;;;;;;;;12.90;71.20;;;11.86;66.79;95960.31;4295255;32;20001;-87
2022/05/03 12:39:16;;;;;;;;;;;12.90;71.30;;;11.87;67.03;95958.41;4320128;32;19964;-87
2022/05/03 12:41:53;;;;;;;;;;;12.80;71.20;;;11.87;67.00;95948.25;4320179;32;20118;-87
2022/05/03 12:44:23;;;;;;;;;;;12.90;71.30;;;11.87;67.25;95948.25;4320183;32;19908;-88